UAL84 EDDM-KEWR
Flight info
| Callsign | UAL84 |
|---|---|
| Flight time | N/A |
| Altitude | 34000 |
| Route | OLASO2S/26L OLASO Z714 PELOG UM164 LUPEN/N0487F330 DCT POGOL DCT LUVAL DCT ROTSI/N0484F340 DCT AMODO DCT COHPA UM729 RESMI UN491 LGL UN502 JSY DCT LIZAD DCT LESLU DCT LIMRI/M084F340 DCT 52N020W 51N030W 50N040W 49N050W DCT JOOPY/N0488F340 N328A TUSKY Q475 COPLY DCT BOS DCT NELIE FLOSI4 |
| Aircraft | B77W/H-SDE1E2E3FGHIJ2J3J4J5M1RWXY/LB1D1 |
Departure
| Time | 2026-05-07 19:39 |
|---|---|
| Airport | Munich Airport (EDDM) |
Arrival
| Time | N/A |
|---|---|
| Airport | Newark Liberty International Airport (KEWR) |
| Time | Latitude | Longitude | Altitude | Speed | Heading |
|---|---|---|---|---|---|
| 2026-05-07 18:46 | 48.35231 | 11.78317 | 1475 ft | 0 kts | 83° |
| 2026-05-07 19:16 | 48.35230 | 11.78295 | 1475 ft | 0 kts | 88° |
| 2026-05-07 19:19 | 48.35229 | 11.78274 | 1485 ft | 4 kts | 81° |
| 2026-05-07 19:19 | 48.35221 | 11.78237 | 1475 ft | 4 kts | 56° |
| 2026-05-07 19:19 | 48.35203 | 11.78209 | 1475 ft | 4 kts | 27° |
| 2026-05-07 19:19 | 48.35178 | 11.78196 | 1475 ft | 4 kts | 6° |
| 2026-05-07 19:20 | 48.35151 | 11.78195 | 1475 ft | 4 kts | 354° |
| 2026-05-07 19:20 | 48.35133 | 11.78199 | 1475 ft | 0 kts | 353° |
| 2026-05-07 19:25 | 48.35134 | 11.78198 | 1490 ft | 1 kts | 353° |
| 2026-05-07 19:25 | 48.35168 | 11.78192 | 1485 ft | 9 kts | 353° |
| 2026-05-07 19:25 | 48.35239 | 11.78180 | 1482 ft | 10 kts | 353° |
| 2026-05-07 19:25 | 48.35312 | 11.78164 | 1477 ft | 10 kts | 342° |
| 2026-05-07 19:26 | 48.35355 | 11.78086 | 1480 ft | 11 kts | 266° |
| 2026-05-07 19:26 | 48.35341 | 11.77976 | 1479 ft | 11 kts | 261° |
| 2026-05-07 19:26 | 48.35331 | 11.77865 | 1487 ft | 11 kts | 262° |
| 2026-05-07 19:26 | 48.35290 | 11.77787 | 1484 ft | 11 kts | 182° |
| 2026-05-07 19:27 | 48.35214 | 11.77805 | 1479 ft | 12 kts | 172° |
| 2026-05-07 19:27 | 48.35120 | 11.77821 | 1477 ft | 16 kts | 173° |
| 2026-05-07 19:27 | 48.34987 | 11.77844 | 1483 ft | 20 kts | 173° |
| 2026-05-07 19:27 | 48.34950 | 11.77850 | 1477 ft | 1 kts | 173° |
| 2026-05-07 19:28 | 48.34939 | 11.77852 | 1485 ft | 4 kts | 173° |
| 2026-05-07 19:28 | 48.34897 | 11.77860 | 1479 ft | 6 kts | 173° |
| 2026-05-07 19:28 | 48.34853 | 11.77867 | 1476 ft | 6 kts | 173° |
| 2026-05-07 19:28 | 48.34797 | 11.77877 | 1478 ft | 12 kts | 173° |
| 2026-05-07 19:29 | 48.34710 | 11.77893 | 1480 ft | 10 kts | 173° |
| 2026-05-07 19:29 | 48.34670 | 11.77960 | 1481 ft | 10 kts | 87° |
| 2026-05-07 19:29 | 48.34677 | 11.78084 | 1490 ft | 15 kts | 84° |
| 2026-05-07 19:29 | 48.34693 | 11.78280 | 1483 ft | 23 kts | 83° |
| 2026-05-07 19:30 | 48.34713 | 11.78545 | 1478 ft | 28 kts | 83° |
| 2026-05-07 19:30 | 48.34736 | 11.78841 | 1480 ft | 29 kts | 83° |
| 2026-05-07 19:30 | 48.34759 | 11.79126 | 1490 ft | 25 kts | 83° |
| 2026-05-07 19:30 | 48.34774 | 11.79336 | 1482 ft | 18 kts | 84° |
| 2026-05-07 19:31 | 48.34782 | 11.79451 | 1476 ft | 10 kts | 83° |
| 2026-05-07 19:31 | 48.34794 | 11.79596 | 1480 ft | 16 kts | 83° |
| 2026-05-07 19:31 | 48.34807 | 11.79766 | 1486 ft | 16 kts | 84° |
| 2026-05-07 19:31 | 48.34822 | 11.79960 | 1487 ft | 20 kts | 83° |
| 2026-05-07 19:32 | 48.34839 | 11.80169 | 1479 ft | 20 kts | 83° |
| 2026-05-07 19:32 | 48.34821 | 11.80342 | 1479 ft | 15 kts | 128° |
| 2026-05-07 19:32 | 48.34728 | 11.80398 | 1479 ft | 15 kts | 172° |
| 2026-05-07 19:32 | 48.34634 | 11.80416 | 1481 ft | 9 kts | 173° |
| 2026-05-07 19:33 | 48.34629 | 11.80417 | 1483 ft | 0 kts | 173° |
| 2026-05-07 19:37 | 48.34622 | 11.80418 | 1482 ft | 5 kts | 173° |
| 2026-05-07 19:37 | 48.34547 | 11.80411 | 1475 ft | 17 kts | 199° |
| 2026-05-07 19:37 | 48.34469 | 11.80289 | 1482 ft | 8 kts | 259° |
| 2026-05-07 19:37 | 48.34468 | 11.80285 | 1480 ft | 0 kts | 260° |
| 2026-05-07 19:38 | 48.34466 | 11.80266 | 1479 ft | 11 kts | 260° |
| 2026-05-07 19:38 | 48.34429 | 11.79798 | 1485 ft | 80 kts | 264° |
| 2026-05-07 19:38 | 48.34341 | 11.78646 | 1486 ft | 141 kts | 263° |
| 2026-05-07 19:38 | 48.34209 | 11.76926 | 1487 ft | 188 kts | 264° |
| 2026-05-07 19:39 | 48.34055 | 11.74918 | 1881 ft | 192 kts | 265° |
| 2026-05-07 19:39 | 48.33916 | 11.72876 | 2352 ft | 197 kts | 265° |
| 2026-05-07 19:39 | 48.33772 | 11.70831 | 2937 ft | 198 kts | 264° |
| 2026-05-07 19:39 | 48.33615 | 11.68769 | 3475 ft | 197 kts | 264° |
| 2026-05-07 19:40 | 48.33452 | 11.66728 | 3994 ft | 198 kts | 264° |
| 2026-05-07 19:40 | 48.33286 | 11.64613 | 4296 ft | 213 kts | 264° |
| 2026-05-07 19:40 | 48.33176 | 11.63101 | 4418 ft | 227 kts | 264° |
| 2026-05-07 19:40 | 48.32935 | 11.59787 | 4849 ft | 247 kts | 264° |
| 2026-05-07 19:41 | 48.32744 | 11.57159 | 5298 ft | 257 kts | 264° |
| 2026-05-07 19:41 | 48.32547 | 11.54464 | 5895 ft | 262 kts | 264° |
| 2026-05-07 19:41 | 48.32346 | 11.51732 | 6582 ft | 263 kts | 264° |
| 2026-05-07 19:41 | 48.32144 | 11.48999 | 7303 ft | 263 kts | 264° |
| 2026-05-07 19:42 | 48.31942 | 11.46266 | 8000 ft | 264 kts | 263° |
| 2026-05-07 19:42 | 48.31738 | 11.43521 | 8683 ft | 265 kts | 263° |
| 2026-05-07 19:42 | 48.31533 | 11.40769 | 9375 ft | 266 kts | 263° |
| 2026-05-07 19:42 | 48.31327 | 11.38006 | 10048 ft | 267 kts | 263° |
| 2026-05-07 19:43 | 48.31119 | 11.35228 | 10631 ft | 270 kts | 263° |
| 2026-05-07 19:43 | 48.30906 | 11.32413 | 11192 ft | 272 kts | 263° |
| 2026-05-07 19:43 | 48.30691 | 11.29572 | 11781 ft | 275 kts | 263° |
| 2026-05-07 19:43 | 48.30455 | 11.26677 | 12193 ft | 287 kts | 262° |
| 2026-05-07 19:44 | 48.30183 | 11.23604 | 12342 ft | 306 kts | 262° |
| 2026-05-07 19:44 | 48.29888 | 11.20328 | 12505 ft | 326 kts | 262° |
| 2026-05-07 19:44 | 48.29574 | 11.16852 | 12671 ft | 346 kts | 262° |
| 2026-05-07 19:44 | 48.29243 | 11.13200 | 13002 ft | 359 kts | 262° |
| 2026-05-07 19:45 | 48.28903 | 11.09437 | 13519 ft | 368 kts | 262° |
| 2026-05-07 19:45 | 48.28561 | 11.05659 | 14128 ft | 372 kts | 262° |
| 2026-05-07 19:45 | 48.28210 | 11.01801 | 14781 ft | 375 kts | 262° |
| 2026-05-07 19:45 | 48.27856 | 10.97910 | 15439 ft | 377 kts | 262° |
| 2026-05-07 19:46 | 48.27497 | 10.93982 | 16071 ft | 381 kts | 262° |
| 2026-05-07 19:46 | 48.27134 | 10.90019 | 16676 ft | 385 kts | 262° |
| 2026-05-07 19:46 | 48.26766 | 10.86022 | 17295 ft | 389 kts | 262° |
| 2026-05-07 19:46 | 48.26393 | 10.81973 | 17921 ft | 393 kts | 262° |
| 2026-05-07 19:47 | 48.26014 | 10.77893 | 18524 ft | 397 kts | 262° |
| 2026-05-07 19:47 | 48.25631 | 10.73772 | 19053 ft | 401 kts | 262° |
| 2026-05-07 19:47 | 48.25242 | 10.69611 | 19622 ft | 404 kts | 262° |
| 2026-05-07 19:47 | 48.24849 | 10.65422 | 20229 ft | 406 kts | 262° |
| 2026-05-07 19:48 | 48.24451 | 10.61206 | 20830 ft | 409 kts | 262° |
| 2026-05-07 19:48 | 48.24050 | 10.56966 | 21408 ft | 412 kts | 262° |
| 2026-05-07 19:48 | 48.23645 | 10.52700 | 21972 ft | 415 kts | 262° |
| 2026-05-07 19:48 | 48.23234 | 10.48395 | 22531 ft | 418 kts | 262° |
| 2026-05-07 19:49 | 48.22819 | 10.44052 | 23100 ft | 421 kts | 262° |
| 2026-05-07 19:49 | 48.22400 | 10.39696 | 23624 ft | 425 kts | 262° |
| 2026-05-07 19:49 | 48.21977 | 10.35302 | 24085 ft | 427 kts | 262° |
| 2026-05-07 19:49 | 48.21548 | 10.30873 | 24550 ft | 430 kts | 262° |
| 2026-05-07 19:50 | 48.21114 | 10.26414 | 24993 ft | 433 kts | 262° |
| 2026-05-07 19:50 | 48.20731 | 10.21926 | 25432 ft | 434 kts | 266° |
| 2026-05-07 19:50 | 48.20722 | 10.17387 | 25827 ft | 438 kts | 273° |
| 2026-05-07 19:50 | 48.20937 | 10.12810 | 26259 ft | 441 kts | 275° |
| 2026-05-07 19:51 | 48.21189 | 10.08231 | 26707 ft | 443 kts | 275° |
| 2026-05-07 19:51 | 48.21405 | 10.03609 | 27135 ft | 445 kts | 274° |
| 2026-05-07 19:51 | 48.21572 | 9.99019 | 27546 ft | 448 kts | 273° |
| 2026-05-07 19:51 | 48.21714 | 9.94340 | 27950 ft | 451 kts | 273° |
| 2026-05-07 19:52 | 48.21852 | 9.89632 | 28347 ft | 453 kts | 273° |
| 2026-05-07 19:52 | 48.22040 | 9.84899 | 28743 ft | 455 kts | 274° |
| 2026-05-07 19:52 | 48.22256 | 9.80153 | 29111 ft | 457 kts | 275° |
| 2026-05-07 19:52 | 48.22471 | 9.75381 | 29477 ft | 460 kts | 274° |
| 2026-05-07 19:53 | 48.22676 | 9.70592 | 29809 ft | 462 kts | 274° |
| 2026-05-07 19:53 | 48.22977 | 9.65783 | 30135 ft | 463 kts | 279° |
| 2026-05-07 19:53 | 48.23568 | 9.61045 | 30509 ft | 462 kts | 282° |
| 2026-05-07 19:53 | 48.24206 | 9.56336 | 30946 ft | 459 kts | 281° |
| 2026-05-07 19:54 | 48.24819 | 9.51645 | 31383 ft | 457 kts | 281° |
| 2026-05-07 19:54 | 48.25410 | 9.46969 | 31772 ft | 456 kts | 281° |
| 2026-05-07 19:54 | 48.25976 | 9.42281 | 32087 ft | 456 kts | 279° |
| 2026-05-07 19:54 | 48.26505 | 9.37578 | 32394 ft | 456 kts | 279° |
| 2026-05-07 19:55 | 48.27015 | 9.32892 | 32757 ft | 455 kts | 279° |
| 2026-05-07 19:55 | 48.27520 | 9.28217 | 33137 ft | 453 kts | 278° |
| 2026-05-07 19:55 | 48.28024 | 9.23548 | 33498 ft | 452 kts | 278° |
| 2026-05-07 19:55 | 48.28528 | 9.18894 | 33855 ft | 451 kts | 279° |
| 2026-05-07 19:56 | 48.28863 | 9.15808 | 33984 ft | 453 kts | 279° |
| 2026-05-07 19:56 | 48.29372 | 9.11122 | 34023 ft | 456 kts | 279° |
| 2026-05-07 19:56 | 48.30555 | 9.00205 | 34062 ft | 452 kts | 278° |
| 2026-05-07 19:57 | 48.31555 | 8.90909 | 34068 ft | 450 kts | 278° |
| 2026-05-07 19:57 | 48.32377 | 8.83193 | 34056 ft | 450 kts | 278° |
| 2026-05-07 19:58 | 48.33366 | 8.73854 | 34066 ft | 450 kts | 278° |
| 2026-05-07 19:58 | 48.34341 | 8.64571 | 34070 ft | 450 kts | 278° |
| 2026-05-07 19:59 | 48.35312 | 8.55252 | 34068 ft | 451 kts | 278° |
| 2026-05-07 19:59 | 48.36276 | 8.45918 | 34072 ft | 452 kts | 278° |
| 2026-05-07 20:00 | 48.37228 | 8.36629 | 34072 ft | 453 kts | 278° |
| 2026-05-07 20:00 | 48.38180 | 8.27258 | 34066 ft | 453 kts | 278° |
| 2026-05-07 20:01 | 48.39125 | 8.17882 | 34050 ft | 454 kts | 278° |
| 2026-05-07 20:01 | 48.40063 | 8.08498 | 34065 ft | 454 kts | 278° |
| 2026-05-07 20:02 | 48.40994 | 7.99103 | 34074 ft | 453 kts | 278° |
| 2026-05-07 20:02 | 48.41914 | 7.89735 | 34073 ft | 452 kts | 277° |
| 2026-05-07 20:03 | 48.42795 | 7.80363 | 34077 ft | 452 kts | 276° |
| 2026-05-07 20:03 | 48.43550 | 7.70979 | 34078 ft | 452 kts | 276° |
| 2026-05-07 20:04 | 48.44283 | 7.61582 | 34066 ft | 452 kts | 276° |
| 2026-05-07 20:04 | 48.45024 | 7.52171 | 34070 ft | 453 kts | 276° |
| 2026-05-07 20:05 | 48.45766 | 7.42753 | 34063 ft | 453 kts | 276° |
| 2026-05-07 20:05 | 48.46505 | 7.33317 | 34069 ft | 454 kts | 276° |
| 2026-05-07 20:06 | 48.47238 | 7.23867 | 34066 ft | 454 kts | 276° |
| 2026-05-07 20:06 | 48.47962 | 7.14415 | 34064 ft | 454 kts | 276° |
| 2026-05-07 20:07 | 48.48678 | 7.04943 | 34065 ft | 455 kts | 276° |
| 2026-05-07 20:07 | 48.49387 | 6.95478 | 34071 ft | 454 kts | 275° |
| 2026-05-07 20:08 | 48.50089 | 6.86008 | 34068 ft | 454 kts | 275° |
| 2026-05-07 20:08 | 48.50777 | 6.76609 | 34069 ft | 454 kts | 275° |
| 2026-05-07 20:09 | 48.51462 | 6.67142 | 34062 ft | 454 kts | 275° |
| 2026-05-07 20:10 | 48.52474 | 6.52958 | 34060 ft | 454 kts | 275° |
| 2026-05-07 20:10 | 48.53140 | 6.43486 | 34077 ft | 454 kts | 275° |
| 2026-05-07 20:11 | 48.53797 | 6.34016 | 34076 ft | 454 kts | 275° |
| 2026-05-07 20:11 | 48.54448 | 6.24531 | 34079 ft | 454 kts | 275° |
| 2026-05-07 20:12 | 48.55090 | 6.15047 | 34067 ft | 455 kts | 275° |
| 2026-05-07 20:12 | 48.55726 | 6.05551 | 34070 ft | 455 kts | 275° |
| 2026-05-07 20:13 | 48.56354 | 5.96051 | 34081 ft | 455 kts | 275° |
| 2026-05-07 20:13 | 48.56970 | 5.86607 | 34080 ft | 455 kts | 274° |
| 2026-05-07 20:14 | 48.57582 | 5.77106 | 34069 ft | 454 kts | 274° |
| 2026-05-07 20:14 | 48.58185 | 5.67617 | 34072 ft | 454 kts | 274° |
| 2026-05-07 20:15 | 48.58782 | 5.58114 | 34068 ft | 454 kts | 274° |
| 2026-05-07 20:15 | 48.59370 | 5.48609 | 34051 ft | 454 kts | 274° |
| 2026-05-07 20:16 | 48.59949 | 5.39111 | 34059 ft | 454 kts | 274° |
| 2026-05-07 20:16 | 48.60522 | 5.29604 | 34048 ft | 454 kts | 274° |
| 2026-05-07 20:17 | 48.61087 | 5.20091 | 34056 ft | 454 kts | 274° |
| 2026-05-07 20:17 | 48.61644 | 5.10580 | 34059 ft | 455 kts | 274° |
| 2026-05-07 20:18 | 48.62194 | 5.01058 | 34045 ft | 455 kts | 274° |
| 2026-05-07 20:18 | 48.62736 | 4.91527 | 34042 ft | 455 kts | 274° |
| 2026-05-07 20:19 | 48.63269 | 4.82011 | 34043 ft | 455 kts | 274° |
| 2026-05-07 20:19 | 48.63795 | 4.72487 | 34048 ft | 455 kts | 273° |
| 2026-05-07 20:20 | 48.64310 | 4.63019 | 34053 ft | 454 kts | 273° |
| 2026-05-07 20:20 | 48.64819 | 4.53504 | 34053 ft | 454 kts | 273° |
| 2026-05-07 20:21 | 48.65321 | 4.43979 | 34052 ft | 454 kts | 273° |
| 2026-05-07 20:21 | 48.65815 | 4.34464 | 34053 ft | 454 kts | 273° |
| 2026-05-07 20:22 | 48.66301 | 4.24934 | 34052 ft | 454 kts | 273° |
| 2026-05-07 20:22 | 48.66780 | 4.15397 | 34047 ft | 455 kts | 273° |
| 2026-05-07 20:23 | 48.67251 | 4.05850 | 34049 ft | 455 kts | 273° |
| 2026-05-07 20:23 | 48.67715 | 3.96300 | 34052 ft | 456 kts | 273° |
| 2026-05-07 20:24 | 48.68171 | 3.86736 | 34053 ft | 456 kts | 272° |
| 2026-05-07 20:24 | 48.68844 | 3.77200 | 34077 ft | 456 kts | 280° |
| 2026-05-07 20:25 | 48.70395 | 3.67884 | 34063 ft | 457 kts | 283° |
| 2026-05-07 20:25 | 48.72129 | 3.58595 | 34059 ft | 458 kts | 284° |
| 2026-05-07 20:26 | 48.73881 | 3.49318 | 34052 ft | 458 kts | 284° |
| 2026-05-07 20:26 | 48.75642 | 3.40033 | 34057 ft | 459 kts | 284° |
| 2026-05-07 20:27 | 48.77407 | 3.30730 | 34050 ft | 459 kts | 284° |
| 2026-05-07 20:27 | 48.79168 | 3.21438 | 34057 ft | 459 kts | 284° |
| 2026-05-07 20:28 | 48.80916 | 3.12198 | 34058 ft | 459 kts | 284° |
| 2026-05-07 20:28 | 48.82674 | 3.02892 | 34062 ft | 459 kts | 284° |
| 2026-05-07 20:29 | 48.84434 | 2.93595 | 34051 ft | 459 kts | 284° |
| 2026-05-07 20:29 | 48.86199 | 2.84285 | 34052 ft | 458 kts | 284° |
| 2026-05-07 20:30 | 48.87959 | 2.74986 | 34048 ft | 458 kts | 284° |
| 2026-05-07 20:30 | 48.89056 | 2.65519 | 34055 ft | 454 kts | 274° |
| 2026-05-07 20:31 | 48.89607 | 2.55953 | 34053 ft | 455 kts | 273° |
| 2026-05-07 20:31 | 48.90189 | 2.46368 | 34049 ft | 455 kts | 274° |
| 2026-05-07 20:32 | 48.90800 | 2.36789 | 34050 ft | 456 kts | 274° |
| 2026-05-07 20:32 | 48.91419 | 2.27193 | 34049 ft | 456 kts | 274° |
| 2026-05-07 20:33 | 48.92032 | 2.17599 | 34053 ft | 456 kts | 274° |
| 2026-05-07 20:33 | 48.92636 | 2.07990 | 34048 ft | 456 kts | 274° |
| 2026-05-07 20:34 | 48.93232 | 1.98383 | 34047 ft | 457 kts | 273° |
| 2026-05-07 20:34 | 48.93819 | 1.88762 | 34048 ft | 457 kts | 273° |
| 2026-05-07 20:35 | 48.94395 | 1.79199 | 34051 ft | 457 kts | 273° |
| 2026-05-07 20:35 | 48.94967 | 1.69567 | 34046 ft | 457 kts | 273° |
| 2026-05-07 20:36 | 48.95530 | 1.59936 | 34048 ft | 458 kts | 273° |
| 2026-05-07 20:36 | 48.96087 | 1.50285 | 34049 ft | 458 kts | 273° |
| 2026-05-07 20:37 | 48.96636 | 1.40626 | 34049 ft | 458 kts | 273° |
| 2026-05-07 20:37 | 48.97178 | 1.30957 | 34057 ft | 458 kts | 273° |
| 2026-05-07 20:38 | 48.97711 | 1.21285 | 34052 ft | 459 kts | 272° |
| 2026-05-07 20:38 | 48.98238 | 1.11591 | 34051 ft | 460 kts | 272° |
| 2026-05-07 20:39 | 48.98756 | 1.01887 | 34048 ft | 460 kts | 272° |
| 2026-05-07 20:39 | 48.99267 | 0.92177 | 34037 ft | 460 kts | 272° |
| 2026-05-07 20:40 | 48.99770 | 0.82456 | 34035 ft | 461 kts | 272° |
| 2026-05-07 20:40 | 49.00265 | 0.72727 | 34027 ft | 460 kts | 272° |
| 2026-05-07 20:41 | 49.00751 | 0.63016 | 34030 ft | 460 kts | 272° |
| 2026-05-07 20:41 | 49.01229 | 0.53308 | 34030 ft | 459 kts | 272° |
| 2026-05-07 20:42 | 49.01698 | 0.43613 | 34042 ft | 459 kts | 272° |
| 2026-05-07 20:42 | 49.02155 | 0.33973 | 34029 ft | 459 kts | 272° |
| 2026-05-07 20:43 | 49.02609 | 0.24259 | 34029 ft | 459 kts | 272° |
| 2026-05-07 20:43 | 49.03054 | 0.14557 | 34030 ft | 460 kts | 271° |
| 2026-05-07 20:44 | 49.03491 | 0.04832 | 34029 ft | 460 kts | 271° |
| 2026-05-07 20:44 | 49.03920 | -0.04894 | 34025 ft | 461 kts | 271° |